createdAt,value
2023-05-22T03:29:52.963Z,100074.56
2023-05-22T03:32:21.664Z,100076.14
2023-05-22T03:34:53.102Z,100072.59
2023-05-22T03:37:20.252Z,100069.59
2023-05-22T03:39:48.337Z,100072.39
2023-05-22T03:42:27.978Z,100071.40
2023-05-22T03:44:57.210Z,100070.04
2023-05-22T03:47:27.167Z,100069.08
2023-05-22T03:49:55.632Z,100070.38
2023-05-22T03:52:25.799Z,100071.83
2023-05-22T03:54:54.021Z,100072.05
2023-05-22T03:57:21.407Z,100071.27
2023-05-22T03:59:50.231Z,100068.48
2023-05-22T04:02:18.446Z,100068.55
2023-05-22T04:04:48.707Z,100067.41
2023-05-22T04:07:18.692Z,100064.82
2023-05-22T04:09:46.859Z,100065.86
2023-05-22T04:12:14.357Z,100071.47
2023-05-22T04:14:43.459Z,100069.08
2023-05-22T04:17:12.027Z,100071.53
2023-05-22T04:19:39.521Z,100071.30
2023-05-22T04:22:07.547Z,100071.67
2023-05-22T04:24:36.777Z,100069.29
2023-05-22T04:27:04.519Z,100066.73
2023-05-22T04:29:33.252Z,100070.19
2023-05-22T04:32:02.722Z,100070.25
2023-05-22T04:34:30.914Z,100066.60
2023-05-22T04:36:58.452Z,100065.84
2023-05-22T04:39:26.947Z,100061.05
2023-05-22T04:41:55.462Z,100062.61
2023-05-22T04:44:24.014Z,100066.35
2023-05-22T04:46:53.088Z,100063.78
2023-05-22T04:49:20.882Z,100063.31
2023-05-22T04:51:49.097Z,100066.48
2023-05-22T04:54:17.439Z,100066.52
2023-05-22T04:56:45.593Z,100069.18
2023-05-22T04:59:16.646Z,100068.33
2023-05-22T05:01:48.306Z,100075.77
2023-05-22T05:04:16.654Z,100078.30
2023-05-22T05:06:45.668Z,100078.63
2023-05-22T05:09:13.457Z,100074.30
2023-05-22T05:11:40.916Z,100077.42
2023-05-22T05:14:09.626Z,100075.66
2023-05-22T05:16:37.469Z,100080.48
2023-05-22T05:19:04.659Z,100079.65
2023-05-22T05:21:32.347Z,100076.14
2023-05-22T05:24:03.294Z,100072.96
2023-05-22T05:26:31.286Z,100074.67
2023-05-22T05:29:00.149Z,100076.88
2023-05-22T05:31:37.167Z,100076.93
2023-05-22T05:34:14.775Z,100082.09
2023-05-22T05:37:06.549Z,100087.00
2023-05-22T05:39:33.890Z,100080.65
2023-05-22T05:42:04.539Z,100083.87
2023-05-22T05:44:32.400Z,100088.19
2023-05-22T05:47:01.503Z,100088.09
2023-05-22T05:49:29.577Z,100082.41
2023-05-22T05:51:57.558Z,100082.83
2023-05-22T05:54:28.273Z,100082.11
2023-05-22T05:57:00.648Z,100082.04
2023-05-22T05:59:30.028Z,100085.31
2023-05-22T06:02:15.855Z,100082.71
2023-05-22T06:04:48.885Z,100084.77
2023-05-22T06:07:20.115Z,100082.30
2023-05-22T06:09:51.968Z,100081.55
2023-05-22T06:12:38.416Z,100077.77
2023-05-22T06:15:09.210Z,100080.46
2023-05-22T06:17:38.503Z,100083.74
2023-05-22T06:20:07.407Z,100081.96
2023-05-22T06:22:38.443Z,100077.91
2023-05-22T06:25:07.227Z,100081.44
2023-05-22T06:27:36.308Z,100077.63
2023-05-22T06:30:04.955Z,100078.23
2023-05-22T06:32:35.752Z,100079.94
2023-05-22T06:35:04.668Z,100083.02
2023-05-22T06:37:36.046Z,100083.73
2023-05-22T06:40:04.517Z,100083.98
2023-05-22T06:42:39.721Z,100080.89
2023-05-22T06:45:22.958Z,100080.47
2023-05-22T06:48:09.661Z,100081.27
2023-05-22T06:50:41.253Z,100085.36
2023-05-22T06:53:09.135Z,100083.75
2023-05-22T06:55:37.001Z,100082.90
2023-05-22T06:58:11.761Z,100083.36
2023-05-22T07:00:40.423Z,100079.88
2023-05-22T07:03:15.662Z,100080.17
2023-05-22T07:05:57.858Z,100080.87
2023-05-22T07:08:27.794Z,100085.58
2023-05-22T07:10:56.986Z,100083.88
2023-05-22T07:13:25.163Z,100083.54
2023-05-22T07:15:53.298Z,100083.24
2023-05-22T07:18:21.756Z,100078.61
2023-05-22T07:20:50.022Z,100074.48
2023-05-22T07:23:20.777Z,100075.52
2023-05-22T07:25:51.940Z,100076.48
2023-05-22T07:28:21.352Z,100073.92
2023-05-22T07:30:57.312Z,100075.76
2023-05-22T07:33:26.785Z,100072.47
2023-05-22T07:35:55.441Z,100074.50
2023-05-22T07:38:23.403Z,100070.79
2023-05-22T07:40:57.614Z,100070.48
2023-05-22T07:43:26.966Z,100074.22
2023-05-22T07:45:55.658Z,100078.14
2023-05-22T07:48:29.792Z,100077.73
2023-05-22T07:50:57.340Z,100078.64
2023-05-22T07:53:25.636Z,100078.48
2023-05-22T07:55:55.802Z,100077.09
2023-05-22T07:58:24.402Z,100076.92
2023-05-22T08:00:53.375Z,100078.11
2023-05-22T08:03:23.797Z,100081.61
2023-05-22T08:05:51.621Z,100081.27
2023-05-22T08:08:19.491Z,100080.27
2023-05-22T08:11:03.243Z,100081.52
2023-05-22T08:13:33.589Z,100076.42
2023-05-22T08:16:01.747Z,100078.15
2023-05-22T08:18:30.236Z,100078.13
2023-05-22T08:20:58.135Z,100075.49
2023-05-22T08:23:25.470Z,100085.14
2023-05-22T08:25:59.042Z,100082.53
2023-05-22T08:28:29.716Z,100076.50
2023-05-22T08:30:59.705Z,100079.77
2023-05-22T08:33:27.181Z,100077.85
2023-05-22T08:35:55.222Z,100076.33
2023-05-22T08:38:22.701Z,100077.75
2023-05-22T08:40:50.880Z,100073.73
2023-05-22T08:43:21.301Z,100072.75
2023-05-22T08:46:00.296Z,100073.60
2023-05-22T08:48:31.109Z,100071.24
2023-05-22T08:51:04.500Z,100072.14
2023-05-22T08:53:36.821Z,100075.45
2023-05-22T08:56:06.249Z,100072.64
2023-05-22T08:58:35.766Z,100073.73
2023-05-22T09:01:03.836Z,100070.67
2023-05-22T09:03:35.495Z,100070.67
2023-05-22T09:06:04.107Z,100069.98
2023-05-22T09:08:31.740Z,100069.59
2023-05-22T09:11:00.170Z,100069.26
2023-05-22T09:13:29.315Z,100068.56
2023-05-22T09:16:01.320Z,100070.94
2023-05-22T09:18:30.797Z,100069.46
2023-05-22T09:20:59.241Z,100069.73
2023-05-22T09:23:28.481Z,100067.44
2023-05-22T09:25:57.335Z,100064.67
2023-05-22T09:28:25.322Z,100061.60
2023-05-22T09:30:53.902Z,100062.67
2023-05-22T09:33:22.934Z,100056.77
2023-05-22T09:35:54.049Z,100051.60
2023-05-22T09:38:30.549Z,100050.70
2023-05-22T09:40:58.671Z,100045.33
2023-05-22T09:43:27.606Z,100051.86
2023-05-22T09:46:01.341Z,100051.64
2023-05-22T09:48:29.077Z,100047.89
2023-05-22T09:50:57.011Z,100049.63
2023-05-22T09:53:28.132Z,100046.30
2023-05-22T09:56:00.761Z,100044.15
2023-05-22T09:58:31.406Z,100043.35
2023-05-22T10:00:58.965Z,100043.48
2023-05-22T10:03:28.940Z,100037.78
2023-05-22T10:05:57.363Z,100032.52
2023-05-22T10:08:34.708Z,100033.73
2023-05-22T10:11:07.543Z,100031.91
2023-05-22T10:13:36.358Z,100026.98
2023-05-22T10:16:08.125Z,100024.46
2023-05-22T10:18:35.810Z,100019.39
2023-05-22T10:21:04.042Z,100014.52
2023-05-22T10:23:31.991Z,100016.80
2023-05-22T10:26:01.704Z,100016.55
2023-05-22T10:28:33.984Z,100012.90
2023-05-22T10:31:05.683Z,100011.46
2023-05-22T10:33:55.632Z,100011.75
2023-05-22T10:36:27.237Z,100007.80
2023-05-22T10:39:33.940Z,100010.90
2023-05-22T10:42:01.436Z,100007.45
2023-05-22T10:44:31.385Z,100000.23
2023-05-22T10:46:59.480Z,100001.23
2023-05-22T10:49:29.393Z,99998.88
2023-05-22T10:51:58.354Z,99994.19
2023-05-22T10:54:43.157Z,99994.95
2023-05-22T10:57:11.999Z,99993.79
2023-05-22T10:59:39.443Z,99988.23
2023-05-22T11:02:37.151Z,99986.42
2023-05-22T11:05:22.843Z,99985.44
2023-05-22T11:07:51.052Z,99988.41
2023-05-22T11:10:28.544Z,99984.73
2023-05-22T11:13:14.419Z,99981.10
2023-05-22T11:15:45.912Z,99979.70
2023-05-22T11:18:14.772Z,99979.86
2023-05-22T11:20:43.768Z,99983.57
2023-05-22T11:23:11.659Z,99979.69
2023-05-22T11:25:40.813Z,99976.61
2023-05-22T11:28:08.376Z,99976.41
2023-05-22T11:30:36.911Z,99977.56
2023-05-22T11:33:05.667Z,99975.64
2023-05-22T11:35:35.183Z,99973.39
2023-05-22T11:38:09.971Z,99973.65
2023-05-22T11:40:38.776Z,99969.03
2023-05-22T11:43:08.727Z,99971.56
2023-05-22T11:45:40.372Z,99970.23
2023-05-22T11:48:08.949Z,99965.08
2023-05-22T11:50:42.510Z,99963.45
2023-05-22T11:53:11.337Z,99952.95
2023-05-22T11:55:39.236Z,99950.95
2023-05-22T11:58:07.611Z,99946.48
2023-05-22T12:00:35.581Z,99949.09
2023-05-22T12:03:03.504Z,99944.07
2023-05-22T12:05:34.546Z,99950.23
2023-05-22T12:08:03.560Z,99946.29
2023-05-22T12:10:32.234Z,99949.05
2023-05-22T12:13:00.428Z,99943.70
2023-05-22T12:15:28.900Z,99947.38
2023-05-22T12:17:57.278Z,99942.95
2023-05-22T12:20:31.212Z,99939.13
2023-05-22T12:23:00.170Z,99938.64
2023-05-22T12:25:34.272Z,99938.29
2023-05-22T12:28:04.189Z,99934.67
2023-05-22T12:30:41.303Z,99932.79
2023-05-22T12:33:14.700Z,99936.45
2023-05-22T12:35:42.931Z,99938.86
2023-05-22T12:38:11.779Z,99934.21
2023-05-22T12:40:39.948Z,99937.05
2023-05-22T12:43:08.169Z,99934.90
2023-05-22T12:45:36.785Z,99942.31
2023-05-22T12:48:05.414Z,99939.77
2023-05-22T12:50:33.329Z,99942.33
2023-05-22T12:53:04.471Z,99935.12
2023-05-22T12:55:33.509Z,99936.48
2023-05-22T12:58:02.140Z,99936.55
2023-05-22T13:00:31.118Z,99929.33
2023-05-22T13:03:00.895Z,99930.92
2023-05-22T13:05:29.872Z,99934.79
2023-05-22T13:07:58.506Z,99932.39
2023-05-22T13:10:28.155Z,99930.39
2023-05-22T13:12:59.068Z,99928.45
2023-05-22T13:15:29.736Z,99933.14
2023-05-22T13:17:59.623Z,99932.52
2023-05-22T13:20:29.341Z,99935.11
2023-05-22T13:22:58.902Z,99934.15
2023-05-22T13:25:35.625Z,99932.34
2023-05-22T13:28:04.025Z,99929.77
2023-05-22T13:30:33.493Z,99935.14
2023-05-22T13:33:02.500Z,99930.17
2023-05-22T13:35:30.810Z,99929.02
2023-05-22T13:37:58.557Z,99930.06
2023-05-22T13:40:26.690Z,99928.83
2023-05-22T13:42:55.131Z,99925.73
2023-05-22T13:45:24.261Z,99926.17
2023-05-22T13:47:52.234Z,99926.44
2023-05-22T13:50:20.100Z,99926.38
2023-05-22T13:52:48.074Z,99928.44
2023-05-22T13:55:16.758Z,99928.83
2023-05-22T13:57:44.490Z,99930.54
2023-05-22T14:00:13.604Z,99928.73
2023-05-22T14:02:43.804Z,99924.80
2023-05-22T14:05:12.327Z,99925.16
2023-05-22T14:07:40.426Z,99925.09
2023-05-22T14:10:08.931Z,99922.96
2023-05-22T14:12:37.519Z,99926.16
2023-05-22T14:15:06.533Z,99921.46
2023-05-22T14:17:36.915Z,99925.20
2023-05-22T14:20:05.882Z,99927.81
2023-05-22T14:22:41.386Z,99920.92
2023-05-22T14:25:13.851Z,99920.55
2023-05-22T14:27:42.427Z,99915.91
2023-05-22T14:30:13.835Z,99915.53
2023-05-22T14:32:44.190Z,99913.45
2023-05-22T14:35:12.898Z,99913.17
2023-05-22T14:37:41.602Z,99911.30
2023-05-22T14:40:12.797Z,99907.10
2023-05-22T14:42:40.960Z,99905.06
2023-05-22T14:45:09.556Z,99904.77
2023-05-22T14:47:37.828Z,99902.61
2023-05-22T14:52:42.307Z,99899.41
2023-05-22T14:55:10.430Z,99902.23
2023-05-22T14:57:38.076Z,99900.08
2023-05-22T15:00:09.233Z,99901.89
2023-05-22T15:02:37.790Z,99900.63
2023-05-22T15:05:07.380Z,99896.77
2023-05-22T15:07:44.059Z,99896.87
2023-05-22T15:10:14.668Z,99895.66
2023-05-22T15:12:44.205Z,99897.02
2023-05-22T15:15:12.740Z,99895.95
2023-05-22T15:17:42.893Z,99894.44
2023-05-22T15:20:11.477Z,99897.91
2023-05-22T15:22:40.429Z,99893.77
2023-05-22T15:25:12.645Z,99892.77
2023-05-22T15:27:40.952Z,99895.38
2023-05-22T15:30:12.646Z,99894.34
2023-05-22T15:32:40.423Z,99894.71
2023-05-22T15:35:10.929Z,99896.35
2023-05-22T15:37:41.195Z,99896.02
2023-05-22T15:40:17.902Z,99895.52
2023-05-22T15:42:46.933Z,99899.27
2023-05-22T15:45:14.743Z,99895.84
2023-05-22T15:47:43.339Z,99899.60
2023-05-22T15:50:11.706Z,99903.95
2023-05-22T15:52:40.002Z,99902.43
2023-05-22T15:55:08.466Z,99906.67
2023-05-22T15:57:37.120Z,99906.58
2023-05-22T16:00:06.552Z,99904.33
2023-05-22T16:02:35.164Z,99904.73
2023-05-22T16:05:03.373Z,99915.01
2023-05-22T16:07:31.927Z,99914.63
2023-05-22T16:10:00.227Z,99918.77
2023-05-22T16:12:28.166Z,99920.77
2023-05-22T16:15:00.221Z,99923.86
2023-05-22T16:17:29.816Z,99924.88
2023-05-22T16:19:57.453Z,99923.71
2023-05-22T16:22:33.054Z,99923.42
2023-05-22T16:25:08.789Z,99924.60
2023-05-22T16:27:37.488Z,99923.67
2023-05-22T16:30:05.688Z,99923.61
2023-05-22T16:32:34.318Z,99923.83
2023-05-22T16:35:02.936Z,99929.48
2023-05-22T16:37:30.985Z,99931.41
2023-05-22T16:39:58.916Z,99928.94
2023-05-22T16:42:26.876Z,99930.70
2023-05-22T16:44:54.765Z,99929.80
2023-05-22T16:47:23.097Z,99928.20
2023-05-22T16:49:51.238Z,99926.19
2023-05-22T16:52:22.686Z,99929.08
2023-05-22T16:54:50.530Z,99927.55
2023-05-22T16:57:18.341Z,99927.33
2023-05-22T16:59:46.519Z,99924.88
2023-05-22T17:02:14.399Z,99929.09
2023-05-22T17:04:42.624Z,99929.25
2023-05-22T17:07:10.852Z,99934.69
2023-05-22T17:09:38.678Z,99933.15
2023-05-22T17:12:06.976Z,99933.15
2023-05-22T17:14:34.951Z,99931.82
2023-05-22T17:17:04.201Z,99934.45
2023-05-22T17:19:33.090Z,99932.45
2023-05-22T17:22:01.323Z,99934.93
2023-05-22T17:24:30.198Z,99933.52
2023-05-22T17:26:58.090Z,99932.48
2023-05-22T17:29:27.983Z,99935.18
2023-05-22T17:31:55.983Z,99933.58
2023-05-22T17:34:24.742Z,99931.41
2023-05-22T17:36:53.275Z,99935.13
2023-05-22T17:39:22.077Z,99936.34
2023-05-22T17:41:50.283Z,99938.06
2023-05-22T17:44:18.077Z,99937.95
2023-05-22T17:46:46.391Z,99940.70
2023-05-22T17:49:14.802Z,99945.05
2023-05-22T17:51:42.727Z,99944.88
2023-05-22T17:54:10.646Z,99946.79
2023-05-22T17:56:38.390Z,99945.23
2023-05-22T17:59:07.277Z,99947.33
2023-05-22T18:01:35.340Z,99946.11
2023-05-22T18:04:04.940Z,99951.50
2023-05-22T18:06:33.161Z,99950.52
2023-05-22T18:09:04.660Z,99951.39
2023-05-22T18:11:32.826Z,99953.29
2023-05-22T18:14:00.778Z,99953.65
2023-05-22T18:16:29.090Z,99957.60
2023-05-22T18:18:57.675Z,99958.27
2023-05-22T18:21:25.739Z,99961.23
2023-05-22T18:23:56.354Z,99965.15
2023-05-22T18:26:24.382Z,99963.27
2023-05-22T18:28:52.657Z,99958.45
2023-05-22T18:31:20.937Z,99961.85
2023-05-22T18:33:48.739Z,99959.33
2023-05-22T18:36:17.120Z,99962.00
2023-05-22T18:38:45.749Z,99962.29
2023-05-22T18:41:13.611Z,99967.09
2023-05-22T18:43:43.723Z,99969.45
2023-05-22T18:46:11.565Z,99969.70
2023-05-22T18:48:39.490Z,99966.94
2023-05-22T18:51:07.992Z,99966.22
2023-05-22T18:53:36.061Z,99964.27
2023-05-22T18:56:03.982Z,99957.06
2023-05-22T18:58:32.026Z,99959.70
2023-05-22T19:01:00.022Z,99959.64
2023-05-22T19:03:27.911Z,99962.57
2023-05-22T19:05:56.194Z,99962.99
2023-05-22T19:08:26.774Z,99965.79
2023-05-22T19:10:57.746Z,99962.96
2023-05-22T19:15:48.587Z,99963.02
2023-05-22T19:18:17.805Z,99963.30
2023-05-22T19:20:45.975Z,99963.80
2023-05-22T19:23:15.964Z,99965.52
2023-05-22T19:25:43.942Z,99956.67
2023-05-22T19:28:11.676Z,99958.79
2023-05-22T19:30:41.893Z,99953.69
2023-05-22T19:33:10.863Z,99954.02
2023-05-22T19:35:39.052Z,99951.66
2023-05-22T19:38:07.126Z,99949.19
2023-05-22T19:40:35.698Z,99951.52
2023-05-22T19:43:04.063Z,99951.01
2023-05-22T19:45:31.839Z,99952.61
2023-05-22T19:48:00.153Z,99955.52
2023-05-22T19:50:28.218Z,99954.45
2023-05-22T19:52:56.466Z,99957.77
2023-05-22T19:55:24.835Z,99958.29
2023-05-22T19:57:52.660Z,99959.92
2023-05-22T20:00:21.327Z,99959.05
2023-05-22T20:02:50.241Z,99966.23
2023-05-22T20:05:19.307Z,99960.17
2023-05-22T20:07:48.771Z,99962.97
2023-05-22T20:10:16.750Z,99961.84
2023-05-22T20:12:44.996Z,99958.05
2023-05-22T20:15:15.225Z,99956.70
2023-05-22T20:17:47.813Z,99961.59
2023-05-22T20:20:15.886Z,99961.03
2023-05-22T20:22:43.960Z,99960.46
2023-05-22T20:25:13.336Z,99960.40
2023-05-22T20:27:41.018Z,99959.31
2023-05-22T20:30:12.286Z,99959.34
2023-05-22T20:32:42.871Z,99960.55
2023-05-22T20:35:11.167Z,99956.37
2023-05-22T20:37:42.019Z,99954.46
2023-05-22T20:40:10.915Z,99952.68
2023-05-22T20:42:39.487Z,99951.67
2023-05-22T20:45:07.906Z,99956.79
2023-05-22T20:47:36.945Z,99956.55
2023-05-22T20:50:06.923Z,99957.89
2023-05-22T20:52:37.484Z,99956.33
2023-05-22T20:55:05.651Z,99949.29
2023-05-22T21:00:58.823Z,99944.95
2023-05-22T21:03:27.674Z,99944.23
2023-05-22T21:05:55.661Z,99941.39
2023-05-22T21:08:23.537Z,99938.69
2023-05-22T21:10:51.876Z,99936.99
2023-05-22T21:13:20.304Z,99935.09
2023-05-22T21:15:48.517Z,99937.19
2023-05-22T21:18:16.240Z,99936.86
2023-05-22T21:20:44.087Z,99940.38
2023-05-22T21:23:12.209Z,99940.39
2023-05-22T21:25:40.565Z,99941.97
2023-05-22T21:28:09.018Z,99946.54
2023-05-22T21:30:37.134Z,99944.52
2023-05-22T21:33:05.952Z,99944.98
2023-05-22T21:35:34.166Z,99940.01
2023-05-22T21:38:03.014Z,99934.86
2023-05-22T21:40:31.889Z,99933.89
2023-05-22T21:43:00.002Z,99933.05
2023-05-22T21:45:28.097Z,99928.77
2023-05-22T21:47:56.371Z,99927.56
2023-05-22T21:50:24.815Z,99927.04
2023-05-22T21:52:53.312Z,99927.41
2023-05-22T21:55:21.646Z,99925.71
2023-05-22T21:57:50.427Z,99927.08
2023-05-22T22:00:19.170Z,99925.30
2023-05-22T22:02:46.907Z,99928.55
2023-05-22T22:05:14.960Z,99925.57
2023-05-22T22:07:43.528Z,99925.40
2023-05-22T22:10:11.928Z,99921.59
2023-05-22T22:12:39.579Z,99917.73
2023-05-22T22:15:08.277Z,99917.91
2023-05-22T22:17:36.357Z,99918.35
2023-05-22T22:20:06.000Z,99912.17
2023-05-22T22:22:33.692Z,99912.80
2023-05-22T22:25:01.972Z,99910.91
2023-05-22T22:27:29.938Z,99915.68
2023-05-22T22:29:57.776Z,99911.64
2023-05-22T22:32:25.888Z,99914.06
2023-05-22T22:34:55.424Z,99910.52
2023-05-22T22:37:23.245Z,99907.46
2023-05-22T22:39:51.153Z,99904.05
2023-05-22T22:42:19.023Z,99900.84
2023-05-22T22:44:47.239Z,99901.04
2023-05-22T22:47:14.999Z,99897.11
2023-05-22T22:49:43.289Z,99892.11
2023-05-22T22:52:11.134Z,99888.61
2023-05-22T22:54:39.641Z,99889.73
2023-05-22T22:57:08.095Z,99889.64
2023-05-22T22:59:38.632Z,99890.38
2023-05-22T23:02:06.537Z,99884.30
2023-05-22T23:04:34.490Z,99886.24
2023-05-22T23:07:03.345Z,99884.04
2023-05-22T23:09:31.531Z,99886.56
2023-05-22T23:11:59.841Z,99882.80
2023-05-22T23:14:28.525Z,99884.23
2023-05-22T23:16:56.683Z,99884.77
2023-05-22T23:19:24.552Z,99882.70
2023-05-22T23:21:52.227Z,99883.95
2023-05-22T23:24:19.995Z,99886.70
2023-05-22T23:26:48.335Z,99886.08
2023-05-22T23:29:16.829Z,99881.38
2023-05-22T23:31:44.716Z,99884.39
2023-05-22T23:34:12.439Z,99881.99
2023-05-22T23:36:40.580Z,99880.47
2023-05-22T23:39:08.763Z,99879.03
2023-05-22T23:41:36.523Z,99880.16
2023-05-22T23:44:04.577Z,99879.60
2023-05-22T23:46:33.242Z,99882.12
2023-05-22T23:49:01.374Z,99880.30
2023-05-22T23:51:29.098Z,99878.34
2023-05-22T23:53:56.699Z,99879.45
2023-05-22T23:56:24.553Z,99881.08
2023-05-22T23:58:52.358Z,99879.41
